Monday, January 22, 2018, 8:51 AM EST
Back to Local

KWVL, Waterville, Waterville Robert Lafleur Airport

Location: Waterville, ME, United States Lat: 44.533
Local Time: 8:51 AM EST (13:51 GMT) Lon: -69.683
Time Zone: US/Eastern Elev: 334 ft

Show me the last for .
Show Coded

Time T Td Feel RH Dir Speed Gust Alt SLP Vis Weather Sky Remarks
2018-01-22 07:56 21 15 7 77 30° 14 17 30.33 30.42 10 OVC032 None
2018-01-22 06:56 24 15 16 68 Variable 7 - 30.29 30.38 10 OVC030 6-hr Precip Total (7am): 0.00"
6-hr Min Temp (7am): 24.1°F
6-hr Max Temp (7am): 30.9°F
2018-01-22 05:56 26 18 18 70 50° 8 - 30.26 30.36 10 OVC030 None
2018-01-22 04:56 27 18 19 68 40° 7 - 30.24 30.33 10 OVC047 None
2018-01-22 03:56 28 17 20 62 40° 8 - 30.22 30.31 10 OVC060 1-hr Precip Total: Trace
6-hr Precip Total (4am): 0.00"
2018-01-22 02:56 29 19 23 66 50° 6 - 30.21 30.30 10 OVC055 None
2018-01-22 01:56 30 19 25 63 Variable 5 - 30.20 30.29 10 OVC048 None
2018-01-22 00:56 31 21 26 66 40° 5 - 30.17 30.26 10 OVC046 6-hr Min Temp (1am): 30.9°F
6-hr Max Temp (1am): 37.0°F
2018-01-21 23:56 31 22 27 68 40° 3 - 30.17 30.26 10 FEW048 OVC110 24-hr Min Temp (12am): 30.9°F
24-hr Max Temp (12am): 42.1°F
2018-01-21 22:56 32 22 26 65 30° 7 - 30.15 30.24 10 FEW037 OVC100 None
2018-01-21 21:56 33 23 28 66 20° 6 - 30.16 30.25 10 OVC095 None
2018-01-21 20:56 35 24 29 63 330° 7 - 30.15 30.24 10 OVC100 None
2018-01-21 19:56 34 25 - 69 - Calm - 30.13 30.22 10 OVC110 None
2018-01-21 18:56 34 24 - 66 - Calm - 30.12 30.21 10 BKN110 6-hr Min Temp (7pm): 34.0°F
6-hr Max Temp (7pm): 41.0°F
2018-01-21 17:56 36 24 32 61 340° 5 - 30.11 30.20 10 BKN046 OVC120 None
2018-01-21 16:56 37 24 32 59 310° 6 - 30.10 30.19 10 OVC044 None
2018-01-21 15:56 39 24 35 54 300° 6 - 30.07 30.16 10 OVC044 None
2018-01-21 14:56 40 23 34 50 310° 8 - 30.04 30.13 10 OVC046 None
2018-01-21 13:56 40 23 33 50 300° 10 - 30.03 30.11 10 OVC048 None
2018-01-21 12:56 41 22 32 46 320° 10 20 30.02 30.10 10 OVC050 6-hr Min Temp (1pm): 35.1°F
6-hr Max Temp (1pm): 42.1°F
2018-01-21 11:56 39 21 33 48 300° 8 - 30.01 30.10 10 CLR None
2018-01-21 10:56 40 20 30 44 310° 15 23 30.02 30.11 10 BKN050 None
2018-01-21 09:56 39 20 30 45 300° 10 17 30.03 30.12 10 CLR None
2018-01-21 08:56 38 21 30 50 290° 13 - 30.01 30.10 10 FEW060 None

Support USWX by starting your Amazon purchase here.